Time;durP1;ratioP1;P1;durP2;ratioP2;P2;SDS_P1;SDS_P2;PMS_P1;PMS_P2;Temp;Humidity;BMP_temperature;BMP_pressure;BME280_temperature;BME280_humidity;BME280_pressure;Samples;Min_cycle;Max_cycle;Signal;HPM_P1;HPM_P2
2022/03/10 00:02:13;;;;;;;7.27;3.70;;;;;;;;;;5080621;28;20237;-78
2022/03/10 00:04:40;;;;;;;6.47;4.13;;;;;;;;;;5087793;28;20209;-78
2022/03/10 00:07:08;;;;;;;6.83;3.70;;;;;;;;;;5072114;28;20293;-77
2022/03/10 00:09:35;;;;;;;4.07;3.40;;;;;;;;;;5088281;28;20232;-77
2022/03/10 00:12:03;;;;;;;5.07;3.03;;;;;;;;;;5089563;28;20578;-77
2022/03/10 00:14:30;;;;;;;4.30;3.30;;;;;;;;;;5083564;28;20250;-77
2022/03/10 00:16:58;;;;;;;5.93;3.27;;;;;;;;;;5091441;28;20280;-77
2022/03/10 00:19:26;;;;;;;5.60;3.67;;;;;;;;;;5082536;28;20206;-77
2022/03/10 00:21:53;;;;;;;4.03;3.03;;;;;;;;;;5083676;28;20578;-78
2022/03/10 00:24:20;;;;;;;5.47;3.33;;;;;;;;;;5087503;28;20198;-77
2022/03/10 00:26:48;;;;;;;8.00;3.33;;;;;;;;;;5086457;28;20686;-77
2022/03/10 00:29:15;;;;;;;5.03;3.20;;;;;;;;;;5083175;28;20286;-77
2022/03/10 00:31:42;;;;;;;4.90;3.40;;;;;;;;;;5084453;28;20280;-78
2022/03/10 00:34:11;;;;;;;4.23;3.50;;;;;;;;;;5086989;28;20245;-77
2022/03/10 00:36:38;;;;;;;5.77;3.30;;;;;;;;;;5083764;28;20219;-77
2022/03/10 00:39:06;;;;;;;8.13;3.53;;;;;;;;;;5084772;28;20284;-77
2022/03/10 00:41:33;;;;;;;5.00;3.33;;;;;;;;;;5078953;28;20287;-78
2022/03/10 00:44:00;;;;;;;6.10;3.20;;;;;;;;;;5084655;28;20236;-77
2022/03/10 00:46:27;;;;;;;5.13;3.40;;;;;;;;;;5090163;28;20284;-78
2022/03/10 00:48:54;;;;;;;7.27;3.53;;;;;;;;;;5083419;28;20268;-77
2022/03/10 00:51:23;;;;;;;4.53;3.20;;;;;;;;;;5086203;28;20200;-77
2022/03/10 00:53:50;;;;;;;3.90;3.00;;;;;;;;;;5086060;28;20233;-77
2022/03/10 00:56:17;;;;;;;4.90;2.67;;;;;;;;;;5086445;28;20226;-77
2022/03/10 00:58:44;;;;;;;3.93;2.87;;;;;;;;;;5079511;28;20302;-77
2022/03/10 01:01:12;;;;;;;6.83;2.90;;;;;;;;;;5089079;28;20201;-77
2022/03/10 01:03:39;;;;;;;3.93;2.50;;;;;;;;;;5080842;28;20257;-77
2022/03/10 01:06:06;;;;;;;3.23;2.70;;;;;;;;;;5084664;28;20194;-77
2022/03/10 01:08:35;;;;;;;3.73;2.43;;;;;;;;;;5075549;28;20191;-77
2022/03/10 01:11:02;;;;;;;5.07;3.20;;;;;;;;;;5074465;28;20237;-77
2022/03/10 01:13:29;;;;;;;5.17;2.90;;;;;;;;;;5082222;28;20199;-77
2022/03/10 01:15:56;;;;;;;3.80;2.63;;;;;;;;;;5082215;28;20246;-77
2022/03/10 01:18:23;;;;;;;5.40;2.97;;;;;;;;;;5075180;28;20238;-77
2022/03/10 01:20:50;;;;;;;5.50;3.00;;;;;;;;;;5088865;28;20288;-77
2022/03/10 01:23:18;;;;;;;9.37;2.87;;;;;;;;;;5089793;28;20198;-77
2022/03/10 01:25:46;;;;;;;5.43;2.67;;;;;;;;;;5081609;28;20195;-77
2022/03/10 01:28:13;;;;;;;6.60;2.73;;;;;;;;;;5074042;28;20203;-78
2022/03/10 01:30:42;;;;;;;5.23;2.90;;;;;;;;;;5089231;28;20284;-77
2022/03/10 01:33:10;;;;;;;4.13;3.10;;;;;;;;;;5083408;28;20206;-77
2022/03/10 01:35:37;;;;;;;5.77;3.03;;;;;;;;;;5073492;28;20714;-77
2022/03/10 01:38:04;;;;;;;4.67;2.90;;;;;;;;;;5074188;28;20682;-77
2022/03/10 01:40:32;;;;;;;4.47;3.00;;;;;;;;;;5074531;28;20285;-77
2022/03/10 01:43:00;;;;;;;4.83;2.50;;;;;;;;;;5093662;28;20201;-77
2022/03/10 01:45:28;;;;;;;5.60;2.90;;;;;;;;;;5085421;28;20233;-77
2022/03/10 01:47:55;;;;;;;4.93;3.03;;;;;;;;;;5093412;28;20264;-77
2022/03/10 01:50:22;;;;;;;4.63;2.47;;;;;;;;;;5080372;28;20199;-77
2022/03/10 01:52:50;;;;;;;5.87;2.90;;;;;;;;;;5088435;28;20625;-77
2022/03/10 01:55:17;;;;;;;5.37;3.03;;;;;;;;;;5079478;28;20660;-77
2022/03/10 01:57:44;;;;;;;5.10;2.97;;;;;;;;;;5080020;28;20853;-77
2022/03/10 02:00:14;;;;;;;3.90;2.70;;;;;;;;;;5083477;28;20241;-78
2022/03/10 02:02:41;;;;;;;6.13;3.00;;;;;;;;;;5082041;28;20202;-77
2022/03/10 02:05:08;;;;;;;4.30;2.93;;;;;;;;;;5085072;28;20285;-77
2022/03/10 02:10:20;;;;;;;5.67;3.10;;;;;;;;;;5080622;28;20212;-77
2022/03/10 02:12:48;;;;;;;5.07;3.10;;;;;;;;;;5089795;28;20620;-77
2022/03/10 02:18:03;;;;;;;3.50;3.00;;;;;;;;;;5073307;28;20564;-77
2022/03/10 02:20:30;;;;;;;10.30;3.30;;;;;;;;;;5080900;28;20200;-77
2022/03/10 02:22:59;;;;;;;6.57;3.07;;;;;;;;;;5082731;28;20292;-77
2022/03/10 02:25:28;;;;;;;4.40;3.10;;;;;;;;;;5084437;28;20198;-77
2022/03/10 02:27:55;;;;;;;5.57;3.57;;;;;;;;;;5079702;28;20650;-77
2022/03/10 02:30:23;;;;;;;5.17;3.40;;;;;;;;;;5080914;28;20667;-77
2022/03/10 02:32:51;;;;;;;7.03;3.20;;;;;;;;;;5081740;28;20230;-77
2022/03/10 02:35:19;;;;;;;5.53;3.50;;;;;;;;;;5082052;28;20253;-77
2022/03/10 02:37:46;;;;;;;5.23;2.93;;;;;;;;;;5084384;28;20632;-77
2022/03/10 02:40:15;;;;;;;6.70;3.53;;;;;;;;;;5083414;28;20294;-77
2022/03/10 02:42:42;;;;;;;6.03;3.50;;;;;;;;;;5076877;28;20229;-77
2022/03/10 02:45:10;;;;;;;7.03;3.83;;;;;;;;;;5084271;28;20230;-77
2022/03/10 02:47:37;;;;;;;7.03;4.10;;;;;;;;;;5081331;28;20273;-77
2022/03/10 02:50:06;;;;;;;4.93;3.47;;;;;;;;;;5080372;28;20199;-77
2022/03/10 02:52:34;;;;;;;4.83;3.77;;;;;;;;;;5081655;28;20287;-77
2022/03/10 02:55:02;;;;;;;6.23;3.73;;;;;;;;;;5086008;28;20316;-77
2022/03/10 02:57:31;;;;;;;5.57;3.87;;;;;;;;;;5081461;28;20569;-77
2022/03/10 02:59:59;;;;;;;5.53;4.00;;;;;;;;;;5079636;28;20569;-77
2022/03/10 03:02:26;;;;;;;3.83;3.43;;;;;;;;;;5084148;28;20195;-77
2022/03/10 03:04:53;;;;;;;6.97;4.17;;;;;;;;;;5081088;28;20207;-77
2022/03/10 03:07:21;;;;;;;6.17;4.10;;;;;;;;;;5079182;28;20285;-77
2022/03/10 03:09:48;;;;;;;7.83;3.97;;;;;;;;;;5082609;28;20194;-77
2022/03/10 03:12:16;;;;;;;7.47;3.63;;;;;;;;;;5088717;28;20706;-77
2022/03/10 03:14:44;;;;;;;6.70;3.57;;;;;;;;;;5071692;28;20265;-77
2022/03/10 03:17:12;;;;;;;5.63;3.63;;;;;;;;;;5084773;28;20208;-77
2022/03/10 03:19:39;;;;;;;6.97;3.77;;;;;;;;;;5092487;28;20490;-77
2022/03/10 03:22:06;;;;;;;5.87;3.67;;;;;;;;;;5088647;28;20257;-77
2022/03/10 03:24:33;;;;;;;5.17;4.00;;;;;;;;;;5075212;28;20577;-77
2022/03/10 03:27:01;;;;;;;7.53;4.50;;;;;;;;;;5082013;28;20635;-78
2022/03/10 03:29:28;;;;;;;8.00;4.33;;;;;;;;;;5091330;28;20202;-77
2022/03/10 03:31:56;;;;;;;6.27;3.90;;;;;;;;;;5087010;28;20228;-77
2022/03/10 03:34:24;;;;;;;7.50;4.00;;;;;;;;;;5082279;28;20253;-77
2022/03/10 03:36:51;;;;;;;6.20;4.10;;;;;;;;;;5084130;28;20312;-77
2022/03/10 03:39:18;;;;;;;6.30;3.63;;;;;;;;;;5082553;28;20293;-77
2022/03/10 03:41:45;;;;;;;5.73;4.13;;;;;;;;;;5073641;28;20198;-78
2022/03/10 03:44:13;;;;;;;6.00;3.83;;;;;;;;;;5079718;28;20286;-77
2022/03/10 03:46:40;;;;;;;7.57;4.30;;;;;;;;;;5079758;28;20277;-77
2022/03/10 03:49:10;;;;;;;5.03;4.03;;;;;;;;;;5078048;28;20242;-77
2022/03/10 03:51:37;;;;;;;5.90;4.33;;;;;;;;;;5086971;28;20226;-77
2022/03/10 03:54:06;;;;;;;4.70;3.80;;;;;;;;;;5079439;28;20665;-77
2022/03/10 03:56:33;;;;;;;8.03;4.30;;;;;;;;;;5080299;28;20221;-77
2022/03/10 03:59:00;;;;;;;6.63;4.30;;;;;;;;;;5085736;28;20305;-77
2022/03/10 04:01:27;;;;;;;6.43;4.17;;;;;;;;;;5073286;28;20291;-77
2022/03/10 04:03:55;;;;;;;6.93;4.23;;;;;;;;;;5085899;28;20226;-77
2022/03/10 04:06:24;;;;;;;6.40;4.40;;;;;;;;;;5079758;28;20209;-77
2022/03/10 04:08:51;;;;;;;8.00;4.43;;;;;;;;;;5084488;28;20203;-77
2022/03/10 04:11:18;;;;;;;6.50;4.77;;;;;;;;;;5082371;28;20315;-77
2022/03/10 04:13:46;;;;;;;7.73;5.00;;;;;;;;;;5087870;28;20225;-77
2022/03/10 04:16:13;;;;;;;7.17;5.13;;;;;;;;;;5071416;28;20223;-77
2022/03/10 04:18:40;;;;;;;8.07;5.37;;;;;;;;;;5071153;28;20231;-77
2022/03/10 04:21:08;;;;;;;9.87;5.50;;;;;;;;;;5071106;28;20245;-77
2022/03/10 04:23:36;;;;;;;7.80;5.60;;;;;;;;;;5071228;28;20199;-77
2022/03/10 04:26:03;;;;;;;7.73;5.40;;;;;;;;;;5084425;28;20282;-77
2022/03/10 04:28:31;;;;;;;7.40;5.43;;;;;;;;;;5077601;28;20239;-76
2022/03/10 04:30:58;;;;;;;11.00;5.67;;;;;;;;;;5077234;28;20248;-78
2022/03/10 04:33:25;;;;;;;8.63;6.17;;;;;;;;;;5083165;28;20273;-77
2022/03/10 04:35:52;;;;;;;7.87;5.77;;;;;;;;;;5080462;28;20308;-77
2022/03/10 04:38:19;;;;;;;6.53;5.23;;;;;;;;;;5078807;28;20573;-77
2022/03/10 04:40:48;;;;;;;7.70;6.00;;;;;;;;;;5056477;28;20286;-77
2022/03/10 04:43:15;;;;;;;9.30;5.90;;;;;;;;;;5079665;28;20752;-78
2022/03/10 04:45:43;;;;;;;8.33;5.93;;;;;;;;;;5079762;28;20193;-77
2022/03/10 04:48:10;;;;;;;10.00;6.07;;;;;;;;;;5081665;28;20254;-77
2022/03/10 04:50:38;;;;;;;8.67;5.70;;;;;;;;;;5082073;28;20199;-77
2022/03/10 04:53:05;;;;;;;6.80;5.87;;;;;;;;;;5070580;28;20227;-77
2022/03/10 04:55:32;;;;;;;10.70;6.00;;;;;;;;;;5082944;28;20551;-78
2022/03/10 04:58:01;;;;;;;7.50;5.80;;;;;;;;;;5071690;28;20602;-78
2022/03/10 05:00:29;;;;;;;9.27;5.73;;;;;;;;;;5071174;28;20599;-79
2022/03/10 05:02:56;;;;;;;8.90;6.10;;;;;;;;;;5078834;28;20285;-77
2022/03/10 05:05:23;;;;;;;8.27;6.33;;;;;;;;;;5075391;28;20242;-78
2022/03/10 05:07:51;;;;;;;7.47;6.13;;;;;;;;;;5078777;28;20295;-77
2022/03/10 05:10:19;;;;;;;7.67;6.00;;;;;;;;;;5080899;28;20203;-77
2022/03/10 05:12:47;;;;;;;8.33;5.87;;;;;;;;;;5077862;28;20193;-76
2022/03/10 05:15:18;;;;;;;8.93;6.60;;;;;;;;;;5077504;28;20290;-78
2022/03/10 05:17:45;;;;;;;7.10;6.37;;;;;;;;;;5076707;28;20214;-78
2022/03/10 05:20:12;;;;;;;8.50;6.30;;;;;;;;;;5081741;28;20301;-78
2022/03/10 05:22:43;;;;;;;8.50;6.73;;;;;;;;;;5074143;28;20253;-76
2022/03/10 05:25:10;;;;;;;8.27;6.00;;;;;;;;;;5081505;28;20237;-78
2022/03/10 05:27:37;;;;;;;9.93;6.90;;;;;;;;;;5083786;28;20282;-76
2022/03/10 05:30:05;;;;;;;9.23;6.83;;;;;;;;;;5077052;28;20582;-76
2022/03/10 05:32:34;;;;;;;8.63;6.37;;;;;;;;;;5089913;28;20206;-76
2022/03/10 05:35:03;;;;;;;8.53;6.27;;;;;;;;;;5078379;28;20226;-78
2022/03/10 05:37:30;;;;;;;8.80;6.63;;;;;;;;;;5085673;28;20216;-78
2022/03/10 05:39:58;;;;;;;7.70;6.27;;;;;;;;;;5073822;28;20234;-77
2022/03/10 05:42:25;;;;;;;9.43;6.90;;;;;;;;;;5081089;28;20240;-78
2022/03/10 05:44:52;;;;;;;8.87;6.50;;;;;;;;;;5082613;28;20296;-78
2022/03/10 05:47:19;;;;;;;7.70;6.27;;;;;;;;;;5087277;28;20224;-78
2022/03/10 05:49:49;;;;;;;10.27;7.13;;;;;;;;;;5102430;28;20290;-78
2022/03/10 05:52:16;;;;;;;8.83;6.67;;;;;;;;;;5074014;28;20191;-78
2022/03/10 05:54:43;;;;;;;8.57;6.93;;;;;;;;;;5085562;28;20281;-78
2022/03/10 05:57:10;;;;;;;8.30;6.70;;;;;;;;;;5073929;28;20304;-78
2022/03/10 05:59:37;;;;;;;8.37;6.77;;;;;;;;;;5074024;28;20253;-78
2022/03/10 06:02:05;;;;;;;8.17;6.57;;;;;;;;;;5085261;28;20230;-78
2022/03/10 06:04:32;;;;;;;8.93;6.73;;;;;;;;;;5087670;28;20676;-77
2022/03/10 06:07:01;;;;;;;8.80;6.40;;;;;;;;;;5079704;28;20608;-77
2022/03/10 06:09:28;;;;;;;7.93;6.57;;;;;;;;;;5074075;28;20530;-79
2022/03/10 06:11:55;;;;;;;8.07;6.60;;;;;;;;;;5086717;28;20240;-77
2022/03/10 06:14:23;;;;;;;7.77;6.23;;;;;;;;;;5086289;28;20230;-77
2022/03/10 06:16:50;;;;;;;8.43;6.63;;;;;;;;;;5073464;28;20763;-77
2022/03/10 06:19:17;;;;;;;10.10;7.00;;;;;;;;;;5078905;28;20200;-78
2022/03/10 06:21:44;;;;;;;8.07;6.57;;;;;;;;;;5079122;28;20245;-78
2022/03/10 06:24:13;;;;;;;8.90;6.77;;;;;;;;;;5073975;28;20231;-78
2022/03/10 06:26:40;;;;;;;7.67;6.63;;;;;;;;;;5073706;28;20202;-77
2022/03/10 06:29:08;;;;;;;9.23;7.13;;;;;;;;;;5075849;28;20606;-77
2022/03/10 06:31:36;;;;;;;8.43;6.93;;;;;;;;;;5084814;28;20212;-77
2022/03/10 06:34:03;;;;;;;9.73;6.40;;;;;;;;;;5093978;28;20691;-78
2022/03/10 06:36:30;;;;;;;8.77;6.70;;;;;;;;;;5089472;28;20317;-79
2022/03/10 06:38:57;;;;;;;8.10;6.53;;;;;;;;;;5073139;28;20286;-78
2022/03/10 06:41:26;;;;;;;8.23;6.93;;;;;;;;;;5087060;28;20297;-79
2022/03/10 06:43:53;;;;;;;7.77;6.60;;;;;;;;;;5085873;28;20202;-80
2022/03/10 06:46:21;;;;;;;9.47;7.20;;;;;;;;;;5088848;28;20194;-78
2022/03/10 06:48:48;;;;;;;9.00;6.93;;;;;;;;;;5091596;28;20303;-78
2022/03/10 06:51:15;;;;;;;9.33;6.93;;;;;;;;;;5080572;28;20229;-79
2022/03/10 06:53:42;;;;;;;10.20;7.20;;;;;;;;;;5082819;28;20202;-78
2022/03/10 06:56:10;;;;;;;9.13;6.47;;;;;;;;;;5080437;28;20229;-78
2022/03/10 06:58:40;;;;;;;10.53;6.80;;;;;;;;;;5085312;28;20304;-78
2022/03/10 07:01:07;;;;;;;9.57;6.97;;;;;;;;;;5090360;28;20216;-78
2022/03/10 07:03:34;;;;;;;8.87;6.60;;;;;;;;;;5089354;28;20227;-78
2022/03/10 07:06:01;;;;;;;8.50;6.50;;;;;;;;;;5084746;28;20273;-78
2022/03/10 07:08:28;;;;;;;8.97;7.47;;;;;;;;;;5083016;28;20281;-78
2022/03/10 07:10:56;;;;;;;7.43;6.50;;;;;;;;;;5081728;28;20286;-78
2022/03/10 07:13:23;;;;;;;8.13;7.00;;;;;;;;;;5086248;28;20615;-78
2022/03/10 07:15:51;;;;;;;8.53;6.70;;;;;;;;;;5086497;28;20208;-78
2022/03/10 07:18:19;;;;;;;8.10;6.90;;;;;;;;;;5079328;28;20294;-78
2022/03/10 07:20:47;;;;;;;8.30;6.67;;;;;;;;;;5085120;28;20260;-78
2022/03/10 07:23:14;;;;;;;8.77;7.23;;;;;;;;;;5071683;28;20194;-78
2022/03/10 07:25:43;;;;;;;8.47;7.07;;;;;;;;;;5087728;28;20630;-77
2022/03/10 07:28:10;;;;;;;8.50;6.50;;;;;;;;;;5085180;28;20199;-76
2022/03/10 07:30:37;;;;;;;7.70;6.43;;;;;;;;;;5072635;28;20225;-77
2022/03/10 07:33:06;;;;;;;9.37;6.07;;;;;;;;;;5076625;28;20232;-78
2022/03/10 07:35:33;;;;;;;8.77;6.83;;;;;;;;;;5080478;28;20234;-77
2022/03/10 07:38:01;;;;;;;7.77;6.70;;;;;;;;;;5076176;28;20307;-77
2022/03/10 07:40:28;;;;;;;8.17;6.40;;;;;;;;;;5085864;28;20202;-79
2022/03/10 07:42:55;;;;;;;7.60;6.17;;;;;;;;;;5087257;28;20194;-77
2022/03/10 07:45:23;;;;;;;9.03;6.80;;;;;;;;;;5086207;28;21681;-77
2022/03/10 07:47:50;;;;;;;9.07;6.80;;;;;;;;;;5088952;28;20264;-76
2022/03/10 07:50:18;;;;;;;7.23;6.10;;;;;;;;;;5088045;28;20256;-78
2022/03/10 07:52:46;;;;;;;9.00;6.07;;;;;;;;;;5075982;28;20237;-78
2022/03/10 07:55:13;;;;;;;7.60;6.53;;;;;;;;;;5089859;28;20206;-77
2022/03/10 07:57:41;;;;;;;8.13;6.60;;;;;;;;;;5090582;28;20221;-77
2022/03/10 08:00:09;;;;;;;7.90;6.43;;;;;;;;;;5080765;28;20221;-74
2022/03/10 08:02:36;;;;;;;8.70;6.70;;;;;;;;;;5085149;28;20257;-77
2022/03/10 08:05:04;;;;;;;10.47;6.90;;;;;;;;;;5088923;28;20294;-77
2022/03/10 08:07:34;;;;;;;9.13;7.57;;;;;;;;;;5087066;28;20230;-76
2022/03/10 08:10:01;;;;;;;8.87;6.90;;;;;;;;;;5085489;28;20739;-76
2022/03/10 08:12:29;;;;;;;10.97;6.80;;;;;;;;;;5072458;28;20230;-76
2022/03/10 08:14:57;;;;;;;11.17;6.70;;;;;;;;;;5073617;28;20201;-77
2022/03/10 08:17:25;;;;;;;8.07;6.33;;;;;;;;;;5089309;28;20211;-77
2022/03/10 08:19:52;;;;;;;7.90;6.73;;;;;;;;;;5081653;28;20195;-76
2022/03/10 08:22:20;;;;;;;8.93;6.90;;;;;;;;;;5091617;28;20205;-76
2022/03/10 08:24:48;;;;;;;9.23;6.80;;;;;;;;;;5079201;28;20925;-76
2022/03/10 08:27:16;;;;;;;9.50;6.70;;;;;;;;;;5082495;28;20270;-77
2022/03/10 08:29:43;;;;;;;10.03;6.63;;;;;;;;;;5077238;28;20194;-76
2022/03/10 08:32:11;;;;;;;8.33;6.67;;;;;;;;;;5079918;28;20233;-76
2022/03/10 08:34:39;;;;;;;7.23;6.23;;;;;;;;;;5082020;28;20226;-76
2022/03/10 08:37:07;;;;;;;7.97;6.90;;;;;;;;;;5070727;28;20219;-76
2022/03/10 08:39:34;;;;;;;8.37;6.50;;;;;;;;;;5071181;28;20190;-75
2022/03/10 08:42:03;;;;;;;8.97;5.97;;;;;;;;;;5070686;28;20420;-75
2022/03/10 08:44:30;;;;;;;9.23;6.63;;;;;;;;;;5071016;28;20237;-75
2022/03/10 08:46:57;;;;;;;8.17;6.80;;;;;;;;;;5088275;28;20285;-75
2022/03/10 08:49:24;;;;;;;12.17;7.00;;;;;;;;;;5087019;28;20227;-76
2022/03/10 08:51:52;;;;;;;10.50;6.70;;;;;;;;;;5078417;28;20276;-76
2022/03/10 08:54:19;;;;;;;8.87;6.87;;;;;;;;;;5074754;28;20206;-76
2022/03/10 08:56:47;;;;;;;9.13;7.07;;;;;;;;;;5082668;28;20587;-76
2022/03/10 08:59:15;;;;;;;12.97;7.30;;;;;;;;;;5090040;28;20313;-78
2022/03/10 09:01:42;;;;;;;8.27;6.80;;;;;;;;;;5075687;28;20223;-77
2022/03/10 09:04:10;;;;;;;7.80;6.63;;;;;;;;;;5074588;28;20295;-77
2022/03/10 09:06:37;;;;;;;9.33;6.87;;;;;;;;;;5089046;28;20197;-78
2022/03/10 09:09:04;;;;;;;8.13;6.47;;;;;;;;;;5076471;28;20329;-77
2022/03/10 09:11:32;;;;;;;8.70;6.83;;;;;;;;;;5088015;28;20725;-77
2022/03/10 09:13:59;;;;;;;7.63;6.37;;;;;;;;;;5081147;28;20577;-76
2022/03/10 09:16:28;;;;;;;8.27;6.30;;;;;;;;;;5074183;28;20285;-77
2022/03/10 09:18:55;;;;;;;7.47;6.67;;;;;;;;;;5082432;28;20285;-76
2022/03/10 09:21:22;;;;;;;8.67;6.30;;;;;;;;;;5082373;28;20227;-77
2022/03/10 09:23:50;;;;;;;8.90;7.10;;;;;;;;;;5074096;28;20231;-78
2022/03/10 09:26:17;;;;;;;10.23;7.40;;;;;;;;;;5087628;28;20267;-77
2022/03/10 09:28:45;;;;;;;8.80;6.93;;;;;;;;;;5094545;28;20209;-77
2022/03/10 09:31:12;;;;;;;10.10;7.20;;;;;;;;;;5086928;28;20225;-78
2022/03/10 09:33:41;;;;;;;9.80;7.17;;;;;;;;;;5089629;28;20245;-78
2022/03/10 09:36:09;;;;;;;9.70;6.77;;;;;;;;;;5094054;28;20199;-77
2022/03/10 09:38:36;;;;;;;8.83;7.10;;;;;;;;;;5094236;28;20285;-77
2022/03/10 09:41:03;;;;;;;8.30;6.70;;;;;;;;;;5094110;28;20238;-77
2022/03/10 09:43:32;;;;;;;8.87;7.17;;;;;;;;;;5090633;28;20285;-77
2022/03/10 09:46:00;;;;;;;11.10;7.43;;;;;;;;;;5077641;28;20198;-77
2022/03/10 09:48:28;;;;;;;8.20;6.73;;;;;;;;;;5073670;28;20225;-77
2022/03/10 09:50:56;;;;;;;9.30;7.00;;;;;;;;;;5078884;28;20198;-77
2022/03/10 09:53:24;;;;;;;7.67;6.60;;;;;;;;;;5093800;28;20284;-77
2022/03/10 09:55:51;;;;;;;10.70;6.90;;;;;;;;;;5093843;28;20289;-77
2022/03/10 09:58:18;;;;;;;8.93;7.13;;;;;;;;;;5092067;28;20301;-76
2022/03/10 10:00:46;;;;;;;8.80;7.20;;;;;;;;;;5083070;28;20230;-77
2022/03/10 10:03:13;;;;;;;12.13;6.67;;;;;;;;;;5091804;28;20908;-76
2022/03/10 10:05:40;;;;;;;9.37;7.27;;;;;;;;;;5087495;28;20285;-77
2022/03/10 10:08:11;;;;;;;8.50;7.23;;;;;;;;;;5091680;28;20221;-78
2022/03/10 10:10:40;;;;;;;9.27;7.40;;;;;;;;;;5086292;28;20575;-78
2022/03/10 10:13:07;;;;;;;10.60;7.60;;;;;;;;;;5073946;28;20209;-79
2022/03/10 10:15:35;;;;;;;9.53;7.70;;;;;;;;;;5077769;28;20199;-79
2022/03/10 10:18:03;;;;;;;10.60;7.70;;;;;;;;;;5093142;28;20651;-79
2022/03/10 10:20:33;;;;;;;11.23;8.37;;;;;;;;;;5092031;28;20259;-79
2022/03/10 10:23:15;;;;;;;9.87;7.93;;;;;;;;;;5082303;28;20293;-79
2022/03/10 10:25:50;;;;;;;11.03;7.73;;;;;;;;;;5088960;28;20280;-78
2022/03/10 10:28:28;;;;;;;11.30;8.53;;;;;;;;;;5092878;28;20669;-79
2022/03/10 10:30:57;;;;;;;10.23;8.13;;;;;;;;;;5092981;28;20194;-78
2022/03/10 10:33:24;;;;;;;13.00;8.13;;;;;;;;;;5084617;28;20572;-78
2022/03/10 10:35:52;;;;;;;10.37;8.63;;;;;;;;;;5073262;28;20249;-78
2022/03/10 10:38:29;;;;;;;11.17;8.37;;;;;;;;;;5077156;28;20755;-77
2022/03/10 10:41:11;;;;;;;13.37;8.90;;;;;;;;;;5084733;28;20198;-79
2022/03/10 10:43:42;;;;;;;12.63;8.30;;;;;;;;;;5092108;28;20282;-79
2022/03/10 10:46:10;;;;;;;11.60;8.23;;;;;;;;;;5075517;28;20686;-76
2022/03/10 10:48:47;;;;;;;11.50;8.37;;;;;;;;;;5073924;28;20603;-75
2022/03/10 10:51:15;;;;;;;10.53;7.40;;;;;;;;;;5085803;28;20202;-76
2022/03/10 10:53:42;;;;;;;9.40;7.87;;;;;;;;;;5077487;28;20195;-75
2022/03/10 10:56:09;;;;;;;10.80;8.40;;;;;;;;;;5090006;28;21506;-76
2022/03/10 10:58:38;;;;;;;10.10;8.13;;;;;;;;;;5075267;28;20307;-75
2022/03/10 11:01:07;;;;;;;10.37;7.80;;;;;;;;;;5077412;28;20214;-76
2022/03/10 11:03:37;;;;;;;10.07;8.33;;;;;;;;;;5084874;28;20226;-76
2022/03/10 11:06:04;;;;;;;10.00;8.10;;;;;;;;;;5092268;28;20206;-76
2022/03/10 11:08:31;;;;;;;9.67;8.33;;;;;;;;;;5071586;28;20230;-76
2022/03/10 11:10:58;;;;;;;11.27;8.00;;;;;;;;;;5078888;28;20201;-75
2022/03/10 11:13:26;;;;;;;12.73;8.53;;;;;;;;;;5078531;28;20298;-76
2022/03/10 11:15:54;;;;;;;10.93;8.30;;;;;;;;;;5083542;28;20202;-76
2022/03/10 11:18:24;;;;;;;9.50;7.67;;;;;;;;;;5078847;28;20222;-76
2022/03/10 11:20:54;;;;;;;11.03;7.77;;;;;;;;;;5090461;28;20634;-76
2022/03/10 11:23:23;;;;;;;9.40;8.00;;;;;;;;;;5091238;28;20656;-77
2022/03/10 11:25:55;;;;;;;10.43;7.83;;;;;;;;;;5088745;28;20614;-77
2022/03/10 11:28:23;;;;;;;9.23;7.83;;;;;;;;;;5088889;28;20187;-77
2022/03/10 11:30:51;;;;;;;9.30;8.10;;;;;;;;;;5090976;28;20233;-77
2022/03/10 11:33:19;;;;;;;11.80;8.37;;;;;;;;;;5090410;28;20267;-73
2022/03/10 11:35:49;;;;;;;11.27;7.50;;;;;;;;;;5090176;28;20194;-77
2022/03/10 11:38:16;;;;;;;13.77;8.17;;;;;;;;;;5090792;28;20275;-77
2022/03/10 11:40:48;;;;;;;11.13;8.30;;;;;;;;;;5085155;28;20281;-76
2022/03/10 11:43:20;;;;;;;11.73;8.47;;;;;;;;;;5090978;28;20241;-77
2022/03/10 11:45:47;;;;;;;10.23;8.53;;;;;;;;;;5089962;28;20279;-77
2022/03/10 11:48:34;;;;;;;12.00;8.83;;;;;;;;;;5089953;28;20740;-78
2022/03/10 11:51:09;;;;;;;12.17;9.00;;;;;;;;;;5085970;28;20285;-77
2022/03/10 11:53:56;;;;;;;15.43;9.07;;;;;;;;;;5085725;28;20243;-77
2022/03/10 11:56:33;;;;;;;13.50;8.90;;;;;;;;;;5083353;28;20277;-76
2022/03/10 11:59:15;;;;;;;13.27;9.37;;;;;;;;;;5083133;28;20226;-76
2022/03/10 12:01:43;;;;;;;14.50;9.70;;;;;;;;;;5072844;28;20203;-77
2022/03/10 12:04:14;;;;;;;14.27;9.67;;;;;;;;;;5081416;28;20281;-76
2022/03/10 12:06:48;;;;;;;15.33;9.10;;;;;;;;;;5083225;28;20218;-77
2022/03/10 12:09:26;;;;;;;15.23;9.00;;;;;;;;;;5088331;28;20217;-76
2022/03/10 12:11:54;;;;;;;12.80;8.90;;;;;;;;;;5087041;28;20690;-76
2022/03/10 12:14:25;;;;;;;10.17;8.57;;;;;;;;;;5077120;28;20247;-74
2022/03/10 12:16:52;;;;;;;11.57;8.47;;;;;;;;;;5084501;28;20203;-74
2022/03/10 12:19:19;;;;;;;9.83;8.33;;;;;;;;;;5077668;28;20301;-76
2022/03/10 12:21:48;;;;;;;12.30;9.03;;;;;;;;;;5075129;28;20286;-77
2022/03/10 12:24:15;;;;;;;12.57;7.80;;;;;;;;;;5075139;28;20238;-77
2022/03/10 12:26:45;;;;;;;12.43;8.57;;;;;;;;;;5079274;28;20231;-76
2022/03/10 12:29:13;;;;;;;11.67;8.13;;;;;;;;;;5071271;28;20190;-76
2022/03/10 12:31:41;;;;;;;10.20;8.10;;;;;;;;;;5072123;28;20294;-77
2022/03/10 12:34:11;;;;;;;12.07;7.30;;;;;;;;;;5071205;28;20278;-77
2022/03/10 12:36:39;;;;;;;8.03;6.70;;;;;;;;;;5070499;28;20743;-76
2022/03/10 12:39:10;;;;;;;11.67;7.03;;;;;;;;;;5086941;28;20313;-76
2022/03/10 12:41:38;;;;;;;9.43;6.67;;;;;;;;;;5088065;28;20298;-76
2022/03/10 12:44:06;;;;;;;11.13;6.70;;;;;;;;;;5090634;28;20290;-76
2022/03/10 12:46:34;;;;;;;10.30;6.30;;;;;;;;;;5082383;28;20244;-76
2022/03/10 12:49:06;;;;;;;9.33;6.70;;;;;;;;;;5089003;28;20254;-76
2022/03/10 12:51:35;;;;;;;8.60;6.17;;;;;;;;;;5088985;28;20277;-76
2022/03/10 12:54:02;;;;;;;10.80;6.57;;;;;;;;;;5085772;28;20199;-76
2022/03/10 12:56:42;;;;;;;9.07;6.57;;;;;;;;;;5086789;28;20678;-76
2022/03/10 12:59:09;;;;;;;9.50;6.33;;;;;;;;;;5074688;28;20231;-76
2022/03/10 13:01:37;;;;;;;8.73;6.87;;;;;;;;;;5085366;28;20226;-76
2022/03/10 13:04:05;;;;;;;10.67;6.90;;;;;;;;;;5070599;28;20199;-75
2022/03/10 13:06:34;;;;;;;11.23;6.70;;;;;;;;;;5082212;28;20241;-76
2022/03/10 13:09:01;;;;;;;10.23;6.90;;;;;;;;;;5076223;28;20201;-75
2022/03/10 13:11:29;;;;;;;8.17;6.40;;;;;;;;;;5081804;28;20198;-76
2022/03/10 13:14:09;;;;;;;9.90;6.83;;;;;;;;;;5079343;28;20231;-75
2022/03/10 13:16:37;;;;;;;8.60;6.50;;;;;;;;;;5074687;28;20234;-76
2022/03/10 13:19:04;;;;;;;8.33;6.50;;;;;;;;;;5070710;28;20764;-76
2022/03/10 13:21:32;;;;;;;9.07;6.40;;;;;;;;;;5074581;28;20202;-76
2022/03/10 13:23:59;;;;;;;8.13;6.20;;;;;;;;;;5090033;28;20234;-76
2022/03/10 13:26:27;;;;;;;8.33;6.00;;;;;;;;;;5078892;28;20389;-76
2022/03/10 13:28:54;;;;;;;7.00;5.33;;;;;;;;;;5092455;28;20318;-76
2022/03/10 13:31:29;;;;;;;7.40;5.90;;;;;;;;;;5096094;28;20229;-77
2022/03/10 13:33:57;;;;;;;7.90;5.80;;;;;;;;;;5078789;28;20708;-76
2022/03/10 13:36:24;;;;;;;9.03;6.00;;;;;;;;;;5070656;28;20205;-76
2022/03/10 13:38:51;;;;;;;8.77;6.30;;;;;;;;;;5078975;28;20247;-75
2022/03/10 13:41:18;;;;;;;6.53;5.23;;;;;;;;;;5085498;28;20273;-76
2022/03/10 13:43:46;;;;;;;6.77;5.17;;;;;;;;;;5087269;28;20290;-76
2022/03/10 13:46:15;;;;;;;8.87;6.13;;;;;;;;;;5088081;28;20293;-76
2022/03/10 13:48:51;;;;;;;7.77;5.80;;;;;;;;;;5082186;28;20225;-76
2022/03/10 13:51:19;;;;;;;6.43;5.73;;;;;;;;;;5082570;28;20293;-76
2022/03/10 13:53:56;;;;;;;7.27;6.10;;;;;;;;;;5083954;28;20249;-76
2022/03/10 13:56:33;;;;;;;7.97;6.17;;;;;;;;;;5073613;28;20286;-76
2022/03/10 13:59:02;;;;;;;9.33;6.50;;;;;;;;;;5073259;28;20305;-76
2022/03/10 14:01:29;;;;;;;11.27;6.63;;;;;;;;;;5079886;28;20290;-76
2022/03/10 14:03:58;;;;;;;9.67;7.03;;;;;;;;;;5084682;28;20225;-76
2022/03/10 14:06:25;;;;;;;6.77;5.37;;;;;;;;;;5091471;28;20229;-75
2022/03/10 14:08:54;;;;;;;9.30;5.90;;;;;;;;;;5078766;28;20610;-76
2022/03/10 14:11:22;;;;;;;8.60;5.70;;;;;;;;;;5084843;28;20304;-76
2022/03/10 14:13:49;;;;;;;5.90;5.20;;;;;;;;;;5089587;28;20256;-76
2022/03/10 14:16:19;;;;;;;7.33;5.77;;;;;;;;;;5088874;28;20674;-76
2022/03/10 14:18:47;;;;;;;6.77;4.90;;;;;;;;;;5077415;28;20326;-75
2022/03/10 14:21:16;;;;;;;6.97;5.43;;;;;;;;;;5080692;28;20581;-75
2022/03/10 14:23:44;;;;;;;6.40;5.40;;;;;;;;;;5089618;28;20203;-76
2022/03/10 14:26:14;;;;;;;7.33;5.33;;;;;;;;;;5076598;28;20199;-75
2022/03/10 14:28:42;;;;;;;7.77;5.20;;;;;;;;;;5085644;28;20537;-76
2022/03/10 14:31:10;;;;;;;6.77;4.83;;;;;;;;;;5086545;28;20206;-76
2022/03/10 14:33:38;;;;;;;6.67;5.33;;;;;;;;;;5086177;28;20696;-77
2022/03/10 14:36:06;;;;;;;5.93;4.90;;;;;;;;;;5082532;28;21118;-76
2022/03/10 14:38:35;;;;;;;8.40;5.63;;;;;;;;;;5084262;28;20221;-75
2022/03/10 14:41:02;;;;;;;7.40;5.70;;;;;;;;;;5088779;28;20226;-77
2022/03/10 14:43:29;;;;;;;7.63;5.47;;;;;;;;;;5092618;28;20685;-76
2022/03/10 14:45:56;;;;;;;10.33;5.83;;;;;;;;;;5091948;28;20748;-76
2022/03/10 14:48:24;;;;;;;7.03;5.20;;;;;;;;;;5092513;28;20505;-76
2022/03/10 14:50:51;;;;;;;7.70;6.03;;;;;;;;;;5073499;28;20309;-76
2022/03/10 14:53:18;;;;;;;7.67;5.40;;;;;;;;;;5078795;28;20267;-76